createdAt,value
2018-07-13T04:54:45.277Z,138.80
2018-07-13T04:56:47.353Z,118.33
2018-07-13T04:58:49.514Z,117.80
2018-07-13T05:00:51.868Z,120.77
2018-07-13T05:02:53.980Z,124.07
2018-07-13T05:04:56.059Z,136.87
2018-07-13T05:06:58.178Z,125.87
2018-07-13T05:09:00.293Z,126.63
2018-07-13T05:11:02.486Z,123.53
2018-07-13T05:13:04.619Z,126.87
2018-07-13T05:15:07.473Z,132.13
2018-07-13T05:17:09.558Z,110.83
2018-07-13T05:19:11.677Z,110.80
2018-07-13T05:21:13.778Z,101.13
2018-07-13T05:23:15.894Z,92.40
2018-07-13T05:25:18.061Z,101.43
2018-07-13T05:27:20.178Z,91.97
2018-07-13T05:29:22.270Z,99.60
2018-07-13T05:31:24.382Z,113.13
2018-07-13T05:33:26.473Z,107.10
2018-07-13T05:35:28.657Z,98.80
2018-07-13T05:37:31.266Z,87.40
2018-07-13T05:39:33.380Z,80.23
2018-07-13T05:41:35.493Z,55.23
2018-07-13T05:43:37.661Z,49.63
2018-07-13T05:45:39.784Z,52.20
2018-07-13T05:47:41.949Z,45.17
2018-07-13T05:49:44.199Z,56.00
2018-07-13T05:51:46.221Z,48.13
2018-07-13T05:53:48.317Z,45.87
2018-07-13T05:55:50.450Z,44.40
2018-07-13T05:57:52.680Z,51.60
2018-07-13T05:59:54.734Z,42.03
2018-07-13T06:01:56.876Z,39.50
2018-07-13T06:03:59.047Z,50.60
2018-07-13T06:06:01.130Z,46.97
2018-07-13T06:08:03.269Z,44.13
2018-07-13T06:10:05.365Z,43.93
2018-07-13T06:12:07.597Z,42.80
2018-07-13T06:14:09.690Z,46.20
2018-07-13T06:16:11.745Z,42.17
2018-07-13T06:18:13.818Z,44.20
2018-07-13T06:20:15.981Z,45.23
2018-07-13T06:22:18.074Z,50.50
2018-07-13T06:24:20.204Z,42.93
2018-07-13T06:26:22.220Z,38.03
2018-07-13T06:28:24.313Z,43.87
2018-07-13T06:30:26.430Z,50.87
2018-07-13T06:32:28.698Z,50.53
2018-07-13T06:34:30.790Z,51.83
2018-07-13T06:36:32.842Z,46.97
2018-07-13T06:38:34.979Z,41.37
2018-07-13T06:40:37.072Z,44.00
2018-07-13T06:42:39.198Z,41.83
2018-07-13T06:44:41.430Z,47.30
2018-07-13T06:46:46.090Z,44.90
2018-07-13T06:48:48.170Z,39.63
2018-07-13T06:50:50.354Z,43.93
2018-07-13T06:52:52.347Z,40.67
2018-07-13T06:54:54.458Z,47.63
2018-07-13T06:56:56.705Z,44.37
2018-07-13T06:59:06.210Z,43.23
2018-07-13T07:01:08.814Z,38.50
2018-07-13T07:03:10.869Z,39.17
2018-07-13T07:06:19.413Z,42.37
2018-07-13T07:08:21.554Z,43.33
2018-07-13T07:10:23.629Z,47.40
2018-07-13T07:12:53.206Z,49.03
2018-07-13T07:14:55.281Z,39.27
2018-07-13T07:16:57.313Z,35.97
2018-07-13T07:18:59.367Z,38.50
2018-07-13T07:21:01.424Z,44.90
2018-07-13T07:23:03.466Z,37.33
2018-07-13T07:25:05.893Z,33.67
2018-07-13T07:27:08.061Z,40.73
2018-07-13T07:29:10.098Z,45.53
2018-07-13T07:31:12.165Z,39.87
2018-07-13T07:33:14.242Z,50.10
2018-07-13T07:35:16.308Z,35.03
2018-07-13T07:37:18.338Z,41.97
2018-07-13T07:39:20.409Z,38.13
2018-07-13T07:41:22.507Z,43.30
2018-07-13T07:43:24.557Z,46.87
2018-07-13T07:45:26.661Z,32.73
2018-07-13T07:47:28.741Z,35.90
2018-07-13T07:49:30.828Z,39.30
2018-07-13T07:51:33.049Z,38.77
2018-07-13T07:53:35.130Z,44.73
2018-07-13T07:55:37.206Z,32.40
2018-07-13T07:57:39.396Z,39.70
2018-07-13T07:59:41.330Z,34.33
2018-07-13T08:01:43.422Z,33.43
2018-07-13T08:03:45.455Z,50.23
2018-07-13T08:05:47.513Z,37.93
2018-07-13T08:07:49.582Z,35.07
2018-07-13T08:09:51.639Z,34.30
2018-07-13T08:11:53.768Z,43.90
2018-07-13T08:13:55.907Z,33.27
2018-07-13T08:15:57.916Z,35.93
2018-07-13T08:18:00.184Z,40.07
2018-07-13T08:20:02.458Z,40.90
2018-07-13T08:22:13.562Z,30.03
2018-07-13T08:24:17.973Z,45.87
2018-07-13T08:26:20.149Z,35.30
2018-07-13T08:28:22.325Z,35.60
2018-07-13T08:30:26.944Z,44.97
2018-07-13T08:32:29.039Z,45.73
2018-07-13T08:34:31.118Z,29.67
2018-07-13T08:36:33.461Z,34.73
2018-07-13T08:38:35.616Z,37.27
2018-07-13T08:40:37.738Z,38.60
2018-07-13T08:42:40.445Z,35.60
2018-07-13T08:44:42.544Z,40.13
2018-07-13T08:46:44.633Z,41.30
2018-07-13T08:48:47.016Z,35.10
2018-07-13T08:50:49.625Z,40.43
2018-07-13T08:52:51.796Z,36.10
2018-07-13T08:54:53.998Z,40.37
2018-07-13T08:56:56.325Z,39.13
2018-07-13T08:58:58.438Z,36.40
2018-07-13T09:01:00.495Z,36.27
2018-07-13T09:03:02.607Z,37.27
2018-07-13T09:05:05.134Z,35.80
2018-07-13T09:07:07.358Z,36.47
2018-07-13T09:09:12.376Z,34.93
2018-07-13T09:11:14.477Z,38.70
2018-07-13T09:13:16.604Z,29.63
2018-07-13T09:15:18.734Z,31.63
2018-07-13T09:17:21.368Z,37.53
2018-07-13T09:19:23.525Z,26.43
2018-07-13T09:21:25.659Z,35.27
2018-07-13T09:23:27.710Z,41.10
2018-07-13T09:25:29.829Z,28.80
2018-07-13T09:27:31.942Z,36.33
2018-07-13T09:29:34.011Z,35.37
2018-07-13T09:31:36.106Z,30.40
2018-07-13T09:33:38.221Z,32.73
2018-07-13T09:35:40.313Z,32.43
2018-07-13T09:37:42.557Z,32.90
2018-07-13T09:39:44.710Z,28.93
2018-07-13T09:41:46.937Z,35.53
2018-07-13T09:43:49.141Z,35.30
2018-07-13T09:45:51.307Z,33.13
2018-07-13T09:47:53.499Z,35.33
2018-07-13T09:49:55.698Z,28.20
2018-07-13T09:51:57.891Z,39.50
2018-07-13T09:54:00.192Z,42.33
2018-07-13T09:56:02.142Z,36.80
2018-07-13T09:58:04.203Z,35.53
2018-07-13T10:00:08.221Z,31.47
2018-07-13T10:02:10.302Z,34.13
2018-07-13T10:04:12.364Z,33.37
2018-07-13T10:06:14.542Z,31.13
2018-07-13T10:08:16.587Z,32.67
2018-07-13T10:10:18.661Z,33.17
2018-07-13T10:12:20.732Z,41.57
2018-07-13T10:14:22.914Z,31.23
2018-07-13T10:16:25.022Z,43.47
2018-07-13T10:18:27.182Z,30.97
2018-07-13T10:20:29.353Z,26.47
2018-07-13T10:22:31.543Z,25.90
2018-07-13T10:24:34.951Z,27.90
2018-07-13T10:26:38.383Z,28.97
2018-07-13T10:28:40.574Z,32.67
2018-07-13T10:30:42.748Z,29.90
2018-07-13T10:32:44.873Z,25.00
2018-07-13T10:34:46.995Z,25.00
2018-07-13T10:36:55.294Z,29.33
2018-07-13T10:38:57.457Z,24.50
2018-07-13T10:40:59.600Z,26.67
2018-07-13T10:43:02.182Z,30.60
2018-07-13T10:45:04.396Z,23.43
2018-07-13T10:47:06.523Z,23.30
2018-07-13T10:49:08.658Z,28.00
2018-07-13T10:51:10.799Z,28.10
2018-07-13T10:53:13.014Z,26.10
2018-07-13T10:55:15.225Z,29.43
2018-07-13T10:57:17.301Z,35.07
2018-07-13T10:59:19.381Z,26.73
2018-07-13T11:01:21.583Z,32.57
2018-07-13T11:03:23.683Z,36.80
2018-07-13T11:05:25.801Z,37.00
2018-07-13T11:07:27.901Z,26.60
2018-07-13T11:09:30.018Z,34.00
2018-07-13T11:11:32.176Z,29.13
2018-07-13T11:13:34.381Z,27.00
2018-07-13T11:15:36.493Z,27.23
2018-07-13T11:17:38.613Z,31.00
2018-07-13T11:19:40.685Z,25.90
2018-07-13T11:21:42.872Z,28.47
2018-07-13T11:23:44.957Z,27.73
2018-07-13T11:25:47.158Z,29.60
2018-07-13T11:27:49.237Z,31.03
2018-07-13T11:29:51.439Z,25.83
2018-07-13T11:31:53.677Z,36.03
2018-07-13T11:33:55.897Z,36.00
2018-07-13T11:35:57.995Z,39.73
2018-07-13T11:38:00.166Z,27.40
2018-07-13T11:40:02.257Z,26.40
2018-07-13T11:42:04.434Z,30.70
2018-07-13T11:44:06.635Z,26.53
2018-07-13T11:46:08.720Z,28.50
2018-07-13T11:48:10.846Z,29.10
2018-07-13T11:50:12.991Z,21.83
2018-07-13T11:52:15.170Z,28.13
2018-07-13T11:54:17.204Z,21.50
2018-07-13T11:56:19.432Z,18.80
2018-07-13T11:58:21.554Z,18.83
2018-07-13T12:00:23.643Z,19.40
2018-07-13T12:02:25.829Z,22.63
2018-07-13T12:04:27.934Z,19.23
2018-07-13T12:06:30.107Z,19.83
2018-07-13T12:08:32.199Z,24.27
2018-07-13T12:10:34.266Z,31.57
2018-07-13T12:12:36.370Z,23.30
2018-07-13T12:14:38.463Z,27.67
2018-07-13T12:16:42.033Z,20.27
2018-07-13T12:18:44.029Z,30.97
2018-07-13T12:20:46.557Z,26.10
2018-07-13T12:22:48.768Z,31.60
2018-07-13T12:24:51.166Z,26.27
2018-07-13T12:26:53.321Z,29.63
2018-07-13T12:28:55.725Z,24.33
2018-07-13T12:30:58.366Z,21.07
2018-07-13T12:33:00.585Z,28.73
2018-07-13T12:35:02.764Z,21.13
2018-07-13T12:37:04.882Z,27.23
2018-07-13T12:39:06.981Z,22.13
2018-07-13T12:41:09.125Z,23.40
2018-07-13T12:43:11.194Z,21.33
2018-07-13T12:45:13.449Z,26.73
2018-07-13T12:47:15.570Z,22.10
2018-07-13T12:49:17.787Z,31.23
2018-07-13T12:51:20.178Z,18.77
2018-07-13T12:53:22.357Z,24.47
2018-07-13T12:55:24.661Z,20.07
2018-07-13T12:57:26.766Z,20.07
2018-07-13T12:59:29.292Z,27.23
2018-07-13T13:01:31.575Z,30.53
2018-07-13T13:03:33.775Z,19.60
2018-07-13T13:05:35.960Z,24.97
2018-07-13T13:07:38.865Z,32.53
2018-07-13T13:09:40.962Z,22.90
2018-07-13T13:11:43.073Z,25.33
2018-07-13T13:13:45.265Z,29.60
2018-07-13T13:15:47.530Z,26.00
2018-07-13T13:17:49.618Z,25.93
2018-07-13T13:19:51.905Z,22.80
2018-07-13T13:21:54.167Z,24.37
2018-07-13T13:23:56.157Z,24.63
2018-07-13T13:25:58.295Z,22.63
2018-07-13T13:28:00.578Z,23.40
2018-07-13T13:30:02.782Z,21.27
2018-07-13T13:32:04.953Z,16.53
2018-07-13T13:34:07.223Z,19.63
2018-07-13T13:36:09.302Z,26.17
2018-07-13T13:38:11.434Z,22.90
2018-07-13T13:40:13.676Z,19.23
2018-07-13T13:42:15.765Z,23.50
2018-07-13T13:44:18.015Z,18.77
2018-07-13T13:46:20.135Z,23.00
2018-07-13T13:48:22.253Z,19.50
2018-07-13T13:50:24.420Z,22.40
2018-07-13T13:52:26.662Z,20.43
2018-07-13T13:54:28.728Z,23.00
2018-07-13T13:56:30.930Z,20.23
2018-07-13T13:58:33.158Z,23.27
2018-07-13T14:00:35.268Z,27.10
2018-07-13T14:02:37.463Z,20.00
2018-07-13T14:04:39.694Z,21.70
2018-07-13T14:06:41.881Z,19.23
2018-07-13T14:08:44.054Z,23.07
2018-07-13T14:10:46.196Z,19.63
2018-07-13T14:12:48.403Z,17.73
2018-07-13T14:14:50.565Z,21.90
2018-07-13T14:16:52.658Z,22.33
2018-07-13T14:18:54.901Z,15.70
2018-07-13T14:20:57.424Z,19.90
2018-07-13T14:22:59.550Z,26.37
2018-07-13T14:25:01.686Z,19.57
2018-07-13T14:27:04.014Z,25.93
2018-07-13T14:29:06.206Z,18.20
2018-07-13T14:31:08.394Z,19.37
2018-07-13T14:33:10.542Z,19.50
2018-07-13T14:35:12.676Z,17.50
2018-07-13T14:37:14.885Z,14.27
2018-07-13T14:39:17.115Z,17.50
2018-07-13T14:41:19.298Z,14.77
2018-07-13T14:43:21.390Z,17.97
2018-07-13T14:45:23.482Z,16.90
2018-07-13T14:47:25.728Z,18.37
2018-07-13T14:49:27.810Z,18.30
2018-07-13T14:51:30.026Z,24.13
2018-07-13T14:53:32.189Z,24.17
2018-07-13T14:55:34.356Z,16.97
2018-07-13T14:57:36.538Z,20.27
2018-07-13T14:59:38.781Z,18.33
2018-07-13T15:01:42.104Z,18.00
2018-07-13T15:03:44.346Z,15.50
2018-07-13T15:05:46.611Z,17.30
2018-07-13T15:07:48.806Z,22.60
2018-07-13T15:09:51.000Z,12.57
2018-07-13T15:11:53.294Z,20.50
2018-07-13T15:13:55.446Z,18.03
2018-07-13T15:15:57.582Z,21.50
2018-07-13T15:17:59.732Z,13.90
2018-07-13T15:20:01.838Z,18.03
2018-07-13T15:22:04.158Z,18.33
2018-07-13T15:24:06.421Z,16.97
2018-07-13T15:26:08.565Z,22.20
2018-07-13T15:28:10.756Z,14.97
2018-07-13T15:30:12.867Z,23.40
2018-07-13T15:32:15.050Z,19.40
2018-07-13T15:34:17.309Z,16.90
2018-07-13T15:36:19.438Z,15.30
2018-07-13T15:38:21.670Z,14.33
2018-07-13T15:40:23.786Z,17.33
2018-07-13T15:42:25.858Z,12.87
2018-07-13T15:44:28.179Z,8.97
2018-07-13T15:46:30.283Z,12.90
2018-07-13T15:48:32.489Z,18.87
2018-07-13T15:50:34.599Z,15.73
2018-07-13T15:52:36.711Z,17.37
2018-07-13T15:54:38.870Z,16.93
2018-07-13T15:56:40.992Z,18.73
2018-07-13T15:58:43.225Z,9.20
2018-07-13T16:00:45.177Z,13.00
2018-07-13T16:02:47.327Z,10.60
2018-07-13T16:04:49.514Z,15.70
2018-07-13T16:06:51.634Z,8.63
2018-07-13T16:08:53.770Z,11.00
2018-07-13T16:10:55.920Z,18.53
2018-07-13T16:12:58.050Z,20.40
2018-07-13T16:15:00.190Z,7.23
2018-07-13T16:17:02.363Z,6.63
2018-07-13T16:19:04.484Z,8.93
2018-07-13T16:21:06.666Z,10.83
2018-07-13T16:23:08.902Z,9.47
2018-07-13T16:25:11.013Z,14.33
2018-07-13T16:27:13.130Z,8.93
2018-07-13T16:29:15.246Z,13.07
2018-07-13T16:31:17.361Z,11.80
2018-07-13T16:33:19.434Z,11.23
2018-07-13T16:35:21.545Z,16.73
2018-07-13T16:37:23.692Z,11.73
2018-07-13T16:39:25.932Z,11.77
2018-07-13T16:41:28.010Z,14.30
2018-07-13T16:43:30.254Z,15.53
2018-07-13T16:45:32.449Z,11.20
2018-07-13T16:47:34.632Z,19.20
2018-07-13T16:49:36.697Z,6.17
2018-07-13T16:51:38.811Z,11.00
2018-07-13T16:53:41.080Z,7.10
2018-07-13T16:55:43.193Z,12.53
2018-07-13T16:57:45.362Z,11.90
2018-07-13T16:59:47.558Z,15.90
2018-07-13T17:01:49.753Z,7.57
2018-07-13T17:03:51.856Z,11.27
2018-07-13T17:05:54.087Z,13.73
2018-07-13T17:07:56.160Z,13.33
2018-07-13T17:09:58.267Z,14.93
2018-07-13T17:12:00.359Z,12.67
2018-07-13T17:14:02.431Z,15.60
2018-07-13T17:16:04.650Z,13.17
2018-07-13T17:18:06.765Z,10.50
2018-07-13T17:20:08.862Z,14.57
2018-07-13T17:22:10.878Z,11.47
2018-07-13T17:24:12.968Z,10.20
2018-07-13T17:26:15.075Z,11.13
2018-07-13T17:28:17.105Z,15.07
2018-07-13T17:30:19.179Z,15.77
2018-07-13T17:32:21.254Z,7.23
2018-07-13T17:34:23.322Z,13.40
2018-07-13T17:36:25.366Z,11.07
2018-07-13T17:38:27.435Z,9.40
2018-07-13T17:40:29.529Z,9.17
2018-07-13T17:42:31.696Z,9.30
2018-07-13T17:44:33.697Z,10.80
2018-07-13T17:46:35.772Z,16.10
2018-07-13T17:48:37.800Z,8.40
2018-07-13T17:50:39.854Z,8.80
2018-07-13T17:52:41.935Z,8.97
2018-07-13T17:54:44.133Z,11.00
2018-07-13T17:56:46.213Z,10.07
2018-07-13T17:58:48.318Z,8.20
2018-07-13T18:00:50.585Z,9.50
2018-07-13T18:02:52.453Z,15.10
2018-07-13T18:04:56.306Z,12.73
2018-07-13T18:06:58.409Z,13.40
2018-07-13T18:09:00.469Z,10.23
2018-07-13T18:11:02.537Z,10.90
2018-07-13T18:13:05.125Z,11.40
2018-07-13T18:15:07.210Z,9.87
2018-07-13T18:17:09.287Z,15.47
2018-07-13T18:19:11.342Z,12.67
2018-07-13T18:21:13.401Z,11.90
2018-07-13T18:23:15.485Z,13.23
2018-07-13T18:25:17.597Z,16.60
2018-07-13T18:27:19.681Z,17.90
2018-07-13T18:29:21.742Z,10.00
2018-07-13T18:31:23.785Z,10.93
2018-07-13T18:33:25.891Z,16.20
2018-07-13T18:35:27.934Z,11.43
2018-07-13T18:37:29.997Z,15.23
2018-07-13T18:39:32.054Z,12.53
2018-07-13T18:41:34.090Z,13.93
2018-07-13T18:43:36.140Z,14.23
2018-07-13T18:45:38.242Z,8.67
2018-07-13T18:47:40.351Z,13.30
2018-07-13T18:49:42.459Z,15.47
2018-07-13T18:51:44.513Z,12.47
2018-07-13T18:53:46.565Z,16.10
2018-07-13T18:55:48.638Z,10.57
2018-07-13T18:57:50.778Z,19.07
2018-07-13T18:59:52.896Z,21.43
2018-07-13T19:01:54.913Z,12.07
2018-07-13T19:03:56.989Z,14.83
2018-07-13T19:05:59.055Z,15.30
2018-07-13T19:08:02.884Z,19.03
2018-07-13T19:10:05.023Z,15.40
2018-07-13T19:12:07.105Z,24.00
2018-07-13T19:14:09.193Z,16.00
2018-07-13T19:16:11.313Z,10.80
2018-07-13T19:18:13.397Z,19.60
2018-07-13T19:20:15.463Z,14.00
2018-07-13T19:22:17.498Z,16.17
2018-07-13T19:24:19.573Z,15.73
2018-07-13T19:26:21.638Z,27.83
2018-07-13T19:28:23.679Z,15.90
2018-07-13T19:30:25.844Z,13.90
2018-07-13T19:32:27.843Z,15.33
2018-07-13T19:34:29.965Z,16.50
2018-07-13T19:36:32.076Z,12.50
2018-07-13T19:38:34.050Z,11.63
2018-07-13T19:40:36.160Z,9.50
2018-07-13T19:42:38.227Z,12.57
2018-07-13T19:44:40.329Z,11.83
2018-07-13T19:46:42.491Z,16.47
2018-07-13T19:48:44.505Z,10.30
2018-07-13T19:50:46.541Z,18.77
2018-07-13T19:52:48.583Z,18.10
2018-07-13T19:54:50.662Z,19.57
2018-07-13T19:56:52.801Z,25.53
2018-07-13T19:58:54.869Z,15.30
2018-07-13T20:00:56.933Z,15.23
2018-07-13T20:02:59.001Z,12.93
2018-07-13T20:05:01.049Z,15.50
2018-07-13T20:07:03.090Z,17.90
2018-07-13T20:09:05.590Z,16.77
2018-07-13T20:11:07.728Z,18.37
2018-07-13T20:13:09.705Z,12.80
2018-07-13T20:15:11.774Z,18.13
2018-07-13T20:17:13.826Z,22.00
2018-07-13T20:19:15.873Z,16.17
2018-07-13T20:21:17.918Z,29.83
2018-07-13T20:23:19.969Z,22.47
2018-07-13T20:25:22.017Z,21.63
2018-07-13T20:27:24.104Z,17.80
2018-07-13T20:29:26.168Z,13.60
2018-07-13T20:31:28.217Z,21.07
2018-07-13T20:33:30.276Z,21.53
2018-07-13T20:35:32.546Z,16.90
2018-07-13T20:37:34.600Z,17.00
2018-07-13T20:39:38.260Z,12.27
2018-07-13T20:41:40.309Z,13.67
2018-07-13T20:43:42.405Z,18.60
2018-07-13T20:45:44.473Z,24.30
2018-07-13T20:47:46.522Z,20.90
2018-07-13T20:49:48.567Z,20.30
2018-07-13T20:51:50.701Z,25.07
2018-07-13T20:53:52.773Z,14.47
2018-07-13T20:55:54.822Z,12.53
2018-07-13T20:57:56.866Z,16.97
2018-07-13T20:59:58.913Z,14.80
2018-07-13T21:02:01.059Z,17.10
2018-07-13T21:04:03.138Z,14.30
2018-07-13T21:06:05.233Z,19.00
2018-07-13T21:08:07.341Z,13.93
2018-07-13T21:10:09.463Z,17.10
2018-07-13T21:12:11.522Z,18.50
2018-07-13T21:14:13.573Z,14.97
2018-07-13T21:16:15.610Z,14.17
2018-07-13T21:18:17.670Z,13.30
2018-07-13T21:20:19.840Z,24.67
2018-07-13T21:22:21.799Z,19.20
2018-07-13T21:24:23.855Z,14.40
2018-07-13T21:26:25.917Z,11.73
2018-07-13T21:28:28.274Z,14.60
2018-07-13T21:30:30.313Z,20.10
2018-07-13T21:32:32.403Z,16.97
2018-07-13T21:34:34.454Z,14.43
2018-07-13T21:36:36.543Z,13.43
2018-07-13T21:38:38.611Z,16.87
2018-07-13T21:40:40.662Z,13.33
2018-07-13T21:42:42.738Z,14.47
2018-07-13T21:44:44.809Z,14.33
2018-07-13T21:46:46.905Z,15.17
2018-07-13T21:48:49.267Z,20.93
2018-07-13T21:50:51.330Z,18.63
2018-07-13T21:52:53.417Z,13.10
2018-07-13T21:54:55.473Z,14.67
2018-07-13T21:56:57.526Z,24.10
2018-07-13T21:58:59.580Z,14.07
2018-07-13T22:01:01.649Z,19.63
2018-07-13T22:03:04.617Z,14.67
2018-07-13T22:05:06.658Z,17.53
2018-07-13T22:07:08.824Z,11.53
2018-07-13T22:09:10.873Z,9.80
2018-07-13T22:11:13.086Z,18.57
2018-07-13T22:13:15.192Z,13.70
2018-07-13T22:15:17.229Z,16.67
2018-07-13T22:17:19.254Z,17.67
2018-07-13T22:19:21.290Z,14.87
2018-07-13T22:21:23.359Z,15.03
2018-07-13T22:23:25.429Z,13.60
2018-07-13T22:25:27.496Z,13.93
2018-07-13T22:27:29.669Z,16.33
2018-07-13T22:29:31.716Z,15.53
2018-07-13T22:31:33.799Z,19.07
2018-07-13T22:33:35.885Z,18.93
2018-07-13T22:35:37.982Z,11.83
2018-07-13T22:37:40.029Z,25.07
2018-07-13T22:39:42.117Z,20.57
2018-07-13T22:41:44.174Z,13.47
2018-07-13T22:43:46.250Z,12.20
2018-07-13T22:45:48.321Z,21.13
2018-07-13T22:47:50.409Z,16.00
2018-07-13T22:49:52.457Z,17.00
2018-07-13T22:51:54.521Z,14.40
2018-07-13T22:53:56.573Z,14.03
2018-07-13T22:55:58.668Z,18.87
2018-07-13T22:58:00.995Z,13.00
2018-07-13T23:00:03.177Z,13.27
2018-07-13T23:02:05.461Z,17.47
2018-07-13T23:04:07.557Z,11.63
2018-07-13T23:06:09.661Z,12.73
2018-07-13T23:08:11.785Z,14.80
2018-07-13T23:10:13.867Z,17.07
2018-07-13T23:12:15.901Z,13.83
2018-07-13T23:14:17.966Z,13.90
2018-07-13T23:16:20.014Z,12.37
2018-07-13T23:18:22.045Z,12.67
2018-07-13T23:20:24.157Z,12.90
2018-07-13T23:22:26.209Z,14.07
2018-07-13T23:24:28.262Z,11.93
2018-07-13T23:26:30.381Z,12.53
2018-07-13T23:28:32.438Z,24.30
2018-07-13T23:30:34.501Z,14.00
2018-07-13T23:32:36.606Z,16.10
2018-07-13T23:34:38.682Z,16.50
2018-07-13T23:36:40.782Z,17.67
2018-07-13T23:38:42.851Z,18.80
2018-07-13T23:40:44.949Z,13.93
2018-07-13T23:42:47.081Z,12.30
2018-07-13T23:44:49.167Z,20.23
2018-07-13T23:46:51.255Z,15.83
2018-07-13T23:48:53.404Z,12.87
2018-07-13T23:50:55.463Z,11.83
2018-07-13T23:57:48.281Z,14.03
